sensor_id;sensor_type;location;lat;lon;timestamp;temperature;humidity
6018;DHT22;3037;51.068;13.780;2023-08-24T00:00:37;17.60;1.00
6018;DHT22;3037;51.068;13.780;2023-08-24T00:03:03;17.60;1.00
6018;DHT22;3037;51.068;13.780;2023-08-24T00:05:29;17.70;1.00
6018;DHT22;3037;51.068;13.780;2023-08-24T00:07:54;17.60;99.90
6018;DHT22;3037;51.068;13.780;2023-08-24T00:10:20;17.70;1.00
6018;DHT22;3037;51.068;13.780;2023-08-24T00:12:45;17.50;1.00
6018;DHT22;3037;51.068;13.780;2023-08-24T00:15:11;17.40;1.00
6018;DHT22;3037;51.068;13.780;2023-08-24T00:17:38;17.30;1.00
6018;DHT22;3037;51.068;13.780;2023-08-24T00:20:05;17.30;99.90
6018;DHT22;3037;51.068;13.780;2023-08-24T00:22:33;17.50;1.00
6018;DHT22;3037;51.068;13.780;2023-08-24T00:24:58;17.60;1.00
6018;DHT22;3037;51.068;13.780;2023-08-24T00:27:24;17.50;1.00
6018;DHT22;3037;51.068;13.780;2023-08-24T00:29:49;17.40;1.00
6018;DHT22;3037;51.068;13.780;2023-08-24T00:32:15;17.40;99.90
6018;DHT22;3037;51.068;13.780;2023-08-24T00:34:40;17.30;99.90
6018;DHT22;3037;51.068;13.780;2023-08-24T00:37:06;17.30;1.00
6018;DHT22;3037;51.068;13.780;2023-08-24T00:39:31;17.40;1.00
6018;DHT22;3037;51.068;13.780;2023-08-24T00:41:57;17.50;1.00
6018;DHT22;3037;51.068;13.780;2023-08-24T00:44:22;17.50;99.90
6018;DHT22;3037;51.068;13.780;2023-08-24T00:49:14;17.30;99.90
6018;DHT22;3037;51.068;13.780;2023-08-24T00:51:40;17.40;1.00
6018;DHT22;3037;51.068;13.780;2023-08-24T00:54:05;17.40;1.00
6018;DHT22;3037;51.068;13.780;2023-08-24T00:56:32;17.30;99.90
6018;DHT22;3037;51.068;13.780;2023-08-24T00:58:57;17.20;1.00
6018;DHT22;3037;51.068;13.780;2023-08-24T01:01:23;17.20;1.00
6018;DHT22;3037;51.068;13.780;2023-08-24T01:03:50;17.20;1.00
6018;DHT22;3037;51.068;13.780;2023-08-24T01:06:15;17.30;99.90
6018;DHT22;3037;51.068;13.780;2023-08-24T01:08:41;17.30;1.00
6018;DHT22;3037;51.068;13.780;2023-08-24T01:13:59;17.30;1.00
6018;DHT22;3037;51.068;13.780;2023-08-24T01:16:31;17.20;99.90
6018;DHT22;3037;51.068;13.780;2023-08-24T01:18:58;17.20;1.00
6018;DHT22;3037;51.068;13.780;2023-08-24T01:21:28;17.20;92.70
6018;DHT22;3037;51.068;13.780;2023-08-24T01:24:12;17.00;99.90
6018;DHT22;3037;51.068;13.780;2023-08-24T01:29:05;17.00;99.90
6018;DHT22;3037;51.068;13.780;2023-08-24T01:31:51;17.00;99.90
6018;DHT22;3037;51.068;13.780;2023-08-24T01:34:17;16.90;1.00
6018;DHT22;3037;51.068;13.780;2023-08-24T01:36:43;16.90;99.90
6018;DHT22;3037;51.068;13.780;2023-08-24T01:39:28;16.90;1.00
6018;DHT22;3037;51.068;13.780;2023-08-24T01:41:56;16.90;1.00
6018;DHT22;3037;51.068;13.780;2023-08-24T01:44:25;16.80;1.00
6018;DHT22;3037;51.068;13.780;2023-08-24T01:46:52;16.80;1.00
6018;DHT22;3037;51.068;13.780;2023-08-24T01:49:19;16.70;1.00
6018;DHT22;3037;51.068;13.780;2023-08-24T01:51:46;16.80;1.00
6018;DHT22;3037;51.068;13.780;2023-08-24T01:54:12;16.70;1.00
6018;DHT22;3037;51.068;13.780;2023-08-24T01:56:38;16.70;1.00
6018;DHT22;3037;51.068;13.780;2023-08-24T01:59:04;16.60;1.00
6018;DHT22;3037;51.068;13.780;2023-08-24T02:01:29;16.60;1.00
6018;DHT22;3037;51.068;13.780;2023-08-24T02:03:55;16.70;1.00
6018;DHT22;3037;51.068;13.780;2023-08-24T02:06:21;16.70;1.00
6018;DHT22;3037;51.068;13.780;2023-08-24T02:08:47;16.60;1.00
6018;DHT22;3037;51.068;13.780;2023-08-24T02:11:12;16.60;1.00
6018;DHT22;3037;51.068;13.780;2023-08-24T02:13:38;16.60;1.00
6018;DHT22;3037;51.068;13.780;2023-08-24T02:16:05;16.60;1.00
6018;DHT22;3037;51.068;13.780;2023-08-24T02:18:31;16.60;1.00
6018;DHT22;3037;51.068;13.780;2023-08-24T02:20:57;16.50;1.00
6018;DHT22;3037;51.068;13.780;2023-08-24T02:23:22;16.40;1.00
6018;DHT22;3037;51.068;13.780;2023-08-24T02:25:48;16.40;1.00
6018;DHT22;3037;51.068;13.780;2023-08-24T02:28:13;16.40;1.00
6018;DHT22;3037;51.068;13.780;2023-08-24T02:30:39;16.30;1.00
6018;DHT22;3037;51.068;13.780;2023-08-24T02:33:05;16.20;5.80
6018;DHT22;3037;51.068;13.780;2023-08-24T02:35:30;16.30;25.70
6018;DHT22;3037;51.068;13.780;2023-08-24T02:37:56;16.30;1.00
6018;DHT22;3037;51.068;13.780;2023-08-24T02:40:22;16.30;1.00
6018;DHT22;3037;51.068;13.780;2023-08-24T02:42:48;16.30;1.00
6018;DHT22;3037;51.068;13.780;2023-08-24T02:45:13;16.20;32.40
6018;DHT22;3037;51.068;13.780;2023-08-24T02:47:39;16.20;42.50
6018;DHT22;3037;51.068;13.780;2023-08-24T02:50:05;16.10;23.30
6018;DHT22;3037;51.068;13.780;2023-08-24T02:52:31;16.00;99.90
6018;DHT22;3037;51.068;13.780;2023-08-24T02:54:58;16.00;99.90
6018;DHT22;3037;51.068;13.780;2023-08-24T02:57:23;16.00;99.90
6018;DHT22;3037;51.068;13.780;2023-08-24T02:59:49;16.10;99.90
6018;DHT22;3037;51.068;13.780;2023-08-24T03:02:15;16.10;96.60
6018;DHT22;3037;51.068;13.780;2023-08-24T03:04:40;16.00;99.90
6018;DHT22;3037;51.068;13.780;2023-08-24T03:07:06;15.90;99.90
6018;DHT22;3037;51.068;13.780;2023-08-24T03:09:34;15.90;99.90
6018;DHT22;3037;51.068;13.780;2023-08-24T03:12:00;15.90;99.90
6018;DHT22;3037;51.068;13.780;2023-08-24T03:14:25;15.90;99.90
6018;DHT22;3037;51.068;13.780;2023-08-24T03:16:51;16.00;99.90
6018;DHT22;3037;51.068;13.780;2023-08-24T03:19:16;16.00;99.90
6018;DHT22;3037;51.068;13.780;2023-08-24T03:21:43;15.90;99.90
6018;DHT22;3037;51.068;13.780;2023-08-24T03:24:09;16.00;99.90
6018;DHT22;3037;51.068;13.780;2023-08-24T03:26:34;15.90;99.90
6018;DHT22;3037;51.068;13.780;2023-08-24T03:29:00;15.90;99.90
6018;DHT22;3037;51.068;13.780;2023-08-24T03:31:25;15.90;99.90
6018;DHT22;3037;51.068;13.780;2023-08-24T03:33:51;15.90;72.80
6018;DHT22;3037;51.068;13.780;2023-08-24T03:36:17;15.80;99.90
6018;DHT22;3037;51.068;13.780;2023-08-24T03:38:44;15.80;99.90
6018;DHT22;3037;51.068;13.780;2023-08-24T03:41:10;15.80;99.90
6018;DHT22;3037;51.068;13.780;2023-08-24T03:43:36;15.80;99.90
6018;DHT22;3037;51.068;13.780;2023-08-24T03:46:03;15.80;99.90
6018;DHT22;3037;51.068;13.780;2023-08-24T03:48:32;15.70;99.90
6018;DHT22;3037;51.068;13.780;2023-08-24T03:50:58;15.80;99.90
6018;DHT22;3037;51.068;13.780;2023-08-24T03:53:24;15.70;99.90
6018;DHT22;3037;51.068;13.780;2023-08-24T03:55:54;15.70;99.90
6018;DHT22;3037;51.068;13.780;2023-08-24T03:58:19;15.60;99.90
6018;DHT22;3037;51.068;13.780;2023-08-24T04:00:45;15.60;99.90
6018;DHT22;3037;51.068;13.780;2023-08-24T04:03:11;15.60;99.90
6018;DHT22;3037;51.068;13.780;2023-08-24T04:05:37;15.70;99.90
6018;DHT22;3037;51.068;13.780;2023-08-24T04:08:03;15.70;99.90
6018;DHT22;3037;51.068;13.780;2023-08-24T04:10:30;15.70;99.90
6018;DHT22;3037;51.068;13.780;2023-08-24T04:12:55;15.80;99.90
6018;DHT22;3037;51.068;13.780;2023-08-24T04:15:21;15.70;99.90
6018;DHT22;3037;51.068;13.780;2023-08-24T04:17:48;15.60;99.90
6018;DHT22;3037;51.068;13.780;2023-08-24T04:20:13;15.50;99.90
6018;DHT22;3037;51.068;13.780;2023-08-24T04:22:39;15.50;99.90
6018;DHT22;3037;51.068;13.780;2023-08-24T04:25:05;15.50;99.90
6018;DHT22;3037;51.068;13.780;2023-08-24T04:27:31;15.50;99.90
6018;DHT22;3037;51.068;13.780;2023-08-24T04:29:58;15.50;99.90
6018;DHT22;3037;51.068;13.780;2023-08-24T04:32:23;15.60;99.90
6018;DHT22;3037;51.068;13.780;2023-08-24T04:34:49;15.60;99.90
6018;DHT22;3037;51.068;13.780;2023-08-24T04:37:15;15.60;99.90
6018;DHT22;3037;51.068;13.780;2023-08-24T04:39:40;15.70;99.90
6018;DHT22;3037;51.068;13.780;2023-08-24T04:42:06;15.80;99.90
6018;DHT22;3037;51.068;13.780;2023-08-24T04:44:32;15.90;96.60
6018;DHT22;3037;51.068;13.780;2023-08-24T04:46:58;15.90;1.00
6018;DHT22;3037;51.068;13.780;2023-08-24T04:49:23;16.00;1.00
6018;DHT22;3037;51.068;13.780;2023-08-24T04:51:49;16.00;1.00
6018;DHT22;3037;51.068;13.780;2023-08-24T04:54:14;16.10;1.00
6018;DHT22;3037;51.068;13.780;2023-08-24T04:56:40;16.10;1.00
6018;DHT22;3037;51.068;13.780;2023-08-24T04:59:06;16.20;1.00
6018;DHT22;3037;51.068;13.780;2023-08-24T05:01:33;16.20;1.00
6018;DHT22;3037;51.068;13.780;2023-08-24T05:03:59;16.40;1.00
6018;DHT22;3037;51.068;13.780;2023-08-24T05:06:25;16.40;1.00
6018;DHT22;3037;51.068;13.780;2023-08-24T05:08:50;16.50;99.90
6018;DHT22;3037;51.068;13.780;2023-08-24T05:11:21;16.60;99.90
6018;DHT22;3037;51.068;13.780;2023-08-24T05:13:47;16.70;93.80
6018;DHT22;3037;51.068;13.780;2023-08-24T05:16:13;16.60;99.90
6018;DHT22;3037;51.068;13.780;2023-08-24T05:18:39;16.70;1.00
6018;DHT22;3037;51.068;13.780;2023-08-24T05:21:05;16.80;1.00
6018;DHT22;3037;51.068;13.780;2023-08-24T05:23:32;16.80;1.00
6018;DHT22;3037;51.068;13.780;2023-08-24T05:25:58;16.80;99.90
6018;DHT22;3037;51.068;13.780;2023-08-24T05:28:25;17.00;1.00
6018;DHT22;3037;51.068;13.780;2023-08-24T05:30:52;16.90;1.00
6018;DHT22;3037;51.068;13.780;2023-08-24T05:33:18;17.00;99.90
6018;DHT22;3037;51.068;13.780;2023-08-24T05:35:43;17.10;1.00
6018;DHT22;3037;51.068;13.780;2023-08-24T05:38:09;17.10;1.00
6018;DHT22;3037;51.068;13.780;2023-08-24T05:40:34;17.30;1.00
6018;DHT22;3037;51.068;13.780;2023-08-24T05:43:00;17.40;99.90
6018;DHT22;3037;51.068;13.780;2023-08-24T05:45:26;17.50;1.00
6018;DHT22;3037;51.068;13.780;2023-08-24T05:47:51;17.60;99.90
6018;DHT22;3037;51.068;13.780;2023-08-24T05:50:17;17.70;1.00
6018;DHT22;3037;51.068;13.780;2023-08-24T05:52:42;17.80;1.00
6018;DHT22;3037;51.068;13.780;2023-08-24T05:55:08;17.90;1.00
6018;DHT22;3037;51.068;13.780;2023-08-24T05:57:33;18.00;1.00
6018;DHT22;3037;51.068;13.780;2023-08-24T05:59:59;18.10;1.00
6018;DHT22;3037;51.068;13.780;2023-08-24T06:02:25;18.20;99.90
6018;DHT22;3037;51.068;13.780;2023-08-24T06:04:50;18.40;1.00
6018;DHT22;3037;51.068;13.780;2023-08-24T06:07:16;18.60;99.90
6018;DHT22;3037;51.068;13.780;2023-08-24T06:09:42;18.70;99.90
6018;DHT22;3037;51.068;13.780;2023-08-24T06:12:08;19.70;1.00
6018;DHT22;3037;51.068;13.780;2023-08-24T06:14:33;22.40;1.00
6018;DHT22;3037;51.068;13.780;2023-08-24T06:19:25;24.80;1.00
6018;DHT22;3037;51.068;13.780;2023-08-24T06:21:51;25.40;1.00
6018;DHT22;3037;51.068;13.780;2023-08-24T06:24:16;25.80;1.00
6018;DHT22;3037;51.068;13.780;2023-08-24T06:26:42;26.40;1.00
6018;DHT22;3037;51.068;13.780;2023-08-24T06:29:07;27.50;1.00
6018;DHT22;3037;51.068;13.780;2023-08-24T06:31:33;27.20;1.00
6018;DHT22;3037;51.068;13.780;2023-08-24T06:33:59;27.50;1.00
6018;DHT22;3037;51.068;13.780;2023-08-24T06:36:24;27.80;1.00
6018;DHT22;3037;51.068;13.780;2023-08-24T06:38:50;27.90;1.00
6018;DHT22;3037;51.068;13.780;2023-08-24T06:41:16;28.30;1.00
6018;DHT22;3037;51.068;13.780;2023-08-24T06:43:41;28.40;1.00
6018;DHT22;3037;51.068;13.780;2023-08-24T06:46:07;28.80;1.00
6018;DHT22;3037;51.068;13.780;2023-08-24T06:48:36;29.20;1.00
6018;DHT22;3037;51.068;13.780;2023-08-24T06:51:04;29.30;1.00
6018;DHT22;3037;51.068;13.780;2023-08-24T06:53:30;29.50;1.00
6018;DHT22;3037;51.068;13.780;2023-08-24T06:55:56;30.10;1.00
6018;DHT22;3037;51.068;13.780;2023-08-24T06:58:22;30.50;1.00
6018;DHT22;3037;51.068;13.780;2023-08-24T07:00:48;31.20;1.00
6018;DHT22;3037;51.068;13.780;2023-08-24T07:03:16;31.20;1.00
6018;DHT22;3037;51.068;13.780;2023-08-24T07:05:43;31.70;1.00
6018;DHT22;3037;51.068;13.780;2023-08-24T07:08:08;31.70;1.00
6018;DHT22;3037;51.068;13.780;2023-08-24T07:10:34;32.30;1.00
6018;DHT22;3037;51.068;13.780;2023-08-24T07:12:59;32.40;1.00
6018;DHT22;3037;51.068;13.780;2023-08-24T07:15:25;32.70;1.00
6018;DHT22;3037;51.068;13.780;2023-08-24T07:17:50;32.20;1.00
6018;DHT22;3037;51.068;13.780;2023-08-24T07:20:16;32.40;1.00
6018;DHT22;3037;51.068;13.780;2023-08-24T07:22:41;32.20;1.00
6018;DHT22;3037;51.068;13.780;2023-08-24T07:25:08;32.50;1.00
6018;DHT22;3037;51.068;13.780;2023-08-24T07:27:34;32.70;1.00
6018;DHT22;3037;51.068;13.780;2023-08-24T07:30:01;33.40;1.00
6018;DHT22;3037;51.068;13.780;2023-08-24T07:32:31;34.00;1.00
6018;DHT22;3037;51.068;13.780;2023-08-24T07:34:57;33.90;1.00
6018;DHT22;3037;51.068;13.780;2023-08-24T07:37:25;34.10;1.00
6018;DHT22;3037;51.068;13.780;2023-08-24T07:39:50;34.70;1.00
6018;DHT22;3037;51.068;13.780;2023-08-24T07:42:19;34.50;1.00
6018;DHT22;3037;51.068;13.780;2023-08-24T07:44:45;36.00;1.00
6018;DHT22;3037;51.068;13.780;2023-08-24T07:47:11;35.30;1.00
6018;DHT22;3037;51.068;13.780;2023-08-24T07:49:36;35.00;1.00
6018;DHT22;3037;51.068;13.780;2023-08-24T07:52:05;37.30;1.00
6018;DHT22;3037;51.068;13.780;2023-08-24T07:54:30;36.50;1.00
6018;DHT22;3037;51.068;13.780;2023-08-24T07:56:56;36.00;1.00
6018;DHT22;3037;51.068;13.780;2023-08-24T07:59:21;35.20;1.00
6018;DHT22;3037;51.068;13.780;2023-08-24T08:01:47;36.40;1.00
6018;DHT22;3037;51.068;13.780;2023-08-24T08:04:12;36.30;1.00
6018;DHT22;3037;51.068;13.780;2023-08-24T08:06:38;36.60;1.00
6018;DHT22;3037;51.068;13.780;2023-08-24T08:09:03;36.70;1.00
6018;DHT22;3037;51.068;13.780;2023-08-24T08:11:29;35.80;1.00
6018;DHT22;3037;51.068;13.780;2023-08-24T08:13:56;38.20;1.00
6018;DHT22;3037;51.068;13.780;2023-08-24T08:16:21;37.20;1.00
6018;DHT22;3037;51.068;13.780;2023-08-24T08:18:47;38.40;1.00
6018;DHT22;3037;51.068;13.780;2023-08-24T08:21:16;38.70;1.00
6018;DHT22;3037;51.068;13.780;2023-08-24T08:23:45;39.40;1.00
6018;DHT22;3037;51.068;13.780;2023-08-24T08:26:12;39.80;1.00
6018;DHT22;3037;51.068;13.780;2023-08-24T08:28:39;39.40;1.00
6018;DHT22;3037;51.068;13.780;2023-08-24T08:31:05;37.90;1.00
6018;DHT22;3037;51.068;13.780;2023-08-24T08:33:31;36.70;1.00
6018;DHT22;3037;51.068;13.780;2023-08-24T08:35:56;38.50;1.00
6018;DHT22;3037;51.068;13.780;2023-08-24T08:38:22;38.50;1.00
6018;DHT22;3037;51.068;13.780;2023-08-24T08:40:51;39.80;1.00
6018;DHT22;3037;51.068;13.780;2023-08-24T08:43:21;38.60;1.00
6018;DHT22;3037;51.068;13.780;2023-08-24T08:45:49;40.00;1.00
6018;DHT22;3037;51.068;13.780;2023-08-24T08:48:14;40.80;1.00
6018;DHT22;3037;51.068;13.780;2023-08-24T08:50:40;40.30;1.00
6018;DHT22;3037;51.068;13.780;2023-08-24T08:53:05;40.00;1.00
6018;DHT22;3037;51.068;13.780;2023-08-24T08:55:31;40.70;1.00
6018;DHT22;3037;51.068;13.780;2023-08-24T08:57:58;40.60;1.00
6018;DHT22;3037;51.068;13.780;2023-08-24T09:00:24;40.30;1.00
6018;DHT22;3037;51.068;13.780;2023-08-24T09:02:51;39.80;1.00
6018;DHT22;3037;51.068;13.780;2023-08-24T09:05:17;39.50;1.00
6018;DHT22;3037;51.068;13.780;2023-08-24T09:07:43;39.20;1.00
6018;DHT22;3037;51.068;13.780;2023-08-24T09:10:09;39.90;1.00
6018;DHT22;3037;51.068;13.780;2023-08-24T09:12:35;39.20;1.00
6018;DHT22;3037;51.068;13.780;2023-08-24T09:15:04;38.80;1.00
6018;DHT22;3037;51.068;13.780;2023-08-24T09:17:34;38.50;1.00
6018;DHT22;3037;51.068;13.780;2023-08-24T09:20:02;38.20;1.00
6018;DHT22;3037;51.068;13.780;2023-08-24T09:22:36;39.40;1.00
6018;DHT22;3037;51.068;13.780;2023-08-24T09:25:03;38.80;1.00
6018;DHT22;3037;51.068;13.780;2023-08-24T09:27:30;38.10;1.00
6018;DHT22;3037;51.068;13.780;2023-08-24T09:29:56;38.90;1.00
6018;DHT22;3037;51.068;13.780;2023-08-24T09:32:29;38.70;1.00
6018;DHT22;3037;51.068;13.780;2023-08-24T09:34:55;38.30;1.00
6018;DHT22;3037;51.068;13.780;2023-08-24T09:37:21;37.50;1.00
6018;DHT22;3037;51.068;13.780;2023-08-24T09:39:47;37.80;1.00
6018;DHT22;3037;51.068;13.780;2023-08-24T09:42:13;38.20;1.00
6018;DHT22;3037;51.068;13.780;2023-08-24T09:44:45;39.30;1.00
6018;DHT22;3037;51.068;13.780;2023-08-24T09:47:13;39.80;1.00
6018;DHT22;3037;51.068;13.780;2023-08-24T09:49:39;39.80;1.00
6018;DHT22;3037;51.068;13.780;2023-08-24T09:52:08;40.40;1.00
6018;DHT22;3037;51.068;13.780;2023-08-24T09:54:37;40.50;1.00
6018;DHT22;3037;51.068;13.780;2023-08-24T09:57:05;38.90;1.00
6018;DHT22;3037;51.068;13.780;2023-08-24T09:59:34;38.00;1.00
6018;DHT22;3037;51.068;13.780;2023-08-24T10:02:00;36.90;1.00
6018;DHT22;3037;51.068;13.780;2023-08-24T10:04:33;36.70;1.00
6018;DHT22;3037;51.068;13.780;2023-08-24T10:07:06;37.00;1.00
6018;DHT22;3037;51.068;13.780;2023-08-24T10:09:38;37.20;1.00
6018;DHT22;3037;51.068;13.780;2023-08-24T10:12:07;35.20;1.00
6018;DHT22;3037;51.068;13.780;2023-08-24T10:14:45;34.40;1.00
6018;DHT22;3037;51.068;13.780;2023-08-24T10:17:13;34.30;1.00
6018;DHT22;3037;51.068;13.780;2023-08-24T10:19:41;34.90;1.00
6018;DHT22;3037;51.068;13.780;2023-08-24T10:22:07;34.70;1.00
6018;DHT22;3037;51.068;13.780;2023-08-24T10:24:35;34.50;1.00
6018;DHT22;3037;51.068;13.780;2023-08-24T10:27:02;35.10;1.00
6018;DHT22;3037;51.068;13.780;2023-08-24T10:29:29;34.90;1.00
6018;DHT22;3037;51.068;13.780;2023-08-24T10:31:56;34.40;1.00
6018;DHT22;3037;51.068;13.780;2023-08-24T10:34:22;33.60;1.00
6018;DHT22;3037;51.068;13.780;2023-08-24T10:36:48;34.40;1.00
6018;DHT22;3037;51.068;13.780;2023-08-24T10:39:17;34.20;1.00
6018;DHT22;3037;51.068;13.780;2023-08-24T10:41:47;34.20;1.00
6018;DHT22;3037;51.068;13.780;2023-08-24T10:44:24;33.50;1.00
6018;DHT22;3037;51.068;13.780;2023-08-24T10:49:39;33.20;1.00
6018;DHT22;3037;51.068;13.780;2023-08-24T10:52:18;33.50;1.00
6018;DHT22;3037;51.068;13.780;2023-08-24T10:54:52;33.30;1.00
6018;DHT22;3037;51.068;13.780;2023-08-24T11:00:02;33.70;1.00
6018;DHT22;3037;51.068;13.780;2023-08-24T11:02:47;34.10;1.00
6018;DHT22;3037;51.068;13.780;2023-08-24T11:08:00;33.90;1.00
6018;DHT22;3037;51.068;13.780;2023-08-24T11:10:36;33.30;1.00
6018;DHT22;3037;51.068;13.780;2023-08-24T11:13:15;33.00;1.00
6018;DHT22;3037;51.068;13.780;2023-08-24T11:15:50;32.60;1.00
6018;DHT22;3037;51.068;13.780;2023-08-24T11:18:24;32.60;1.00
6018;DHT22;3037;51.068;13.780;2023-08-24T11:20:55;32.00;1.00
6018;DHT22;3037;51.068;13.780;2023-08-24T11:23:23;32.40;1.00
6018;DHT22;3037;51.068;13.780;2023-08-24T11:25:50;31.80;1.00
6018;DHT22;3037;51.068;13.780;2023-08-24T11:28:20;31.50;1.00
6018;DHT22;3037;51.068;13.780;2023-08-24T11:30:47;31.50;1.00
6018;DHT22;3037;51.068;13.780;2023-08-24T11:33:13;31.40;1.00
6018;DHT22;3037;51.068;13.780;2023-08-24T11:35:43;32.20;1.00
6018;DHT22;3037;51.068;13.780;2023-08-24T11:38:10;33.00;1.00
6018;DHT22;3037;51.068;13.780;2023-08-24T11:40:36;33.20;1.00
6018;DHT22;3037;51.068;13.780;2023-08-24T11:43:01;32.50;1.00
6018;DHT22;3037;51.068;13.780;2023-08-24T11:45:31;32.50;1.00
6018;DHT22;3037;51.068;13.780;2023-08-24T11:47:58;32.60;1.00
6018;DHT22;3037;51.068;13.780;2023-08-24T11:50:25;32.10;1.00
6018;DHT22;3037;51.068;13.780;2023-08-24T11:52:53;32.20;1.00
6018;DHT22;3037;51.068;13.780;2023-08-24T11:55:19;32.40;1.00
6018;DHT22;3037;51.068;13.780;2023-08-24T11:57:45;31.30;1.00
6018;DHT22;3037;51.068;13.780;2023-08-24T12:00:12;31.20;1.00
6018;DHT22;3037;51.068;13.780;2023-08-24T12:02:40;31.00;1.00
6018;DHT22;3037;51.068;13.780;2023-08-24T12:05:06;31.20;1.00
6018;DHT22;3037;51.068;13.780;2023-08-24T12:07:32;30.80;1.00
6018;DHT22;3037;51.068;13.780;2023-08-24T12:10:01;30.70;1.00
6018;DHT22;3037;51.068;13.780;2023-08-24T12:12:27;30.50;1.00
6018;DHT22;3037;51.068;13.780;2023-08-24T12:14:52;30.80;1.00
6018;DHT22;3037;51.068;13.780;2023-08-24T12:17:18;30.70;1.00
6018;DHT22;3037;51.068;13.780;2023-08-24T12:19:45;30.40;1.00
6018;DHT22;3037;51.068;13.780;2023-08-24T12:22:16;30.20;1.00
6018;DHT22;3037;51.068;13.780;2023-08-24T12:24:46;30.10;1.00
6018;DHT22;3037;51.068;13.780;2023-08-24T12:27:19;30.30;1.00
6018;DHT22;3037;51.068;13.780;2023-08-24T12:29:46;30.10;1.00
6018;DHT22;3037;51.068;13.780;2023-08-24T12:32:12;30.50;1.00
6018;DHT22;3037;51.068;13.780;2023-08-24T12:34:37;30.70;1.00
6018;DHT22;3037;51.068;13.780;2023-08-24T12:37:03;31.00;1.00
6018;DHT22;3037;51.068;13.780;2023-08-24T12:39:38;30.80;1.00
6018;DHT22;3037;51.068;13.780;2023-08-24T12:42:04;31.00;1.00
6018;DHT22;3037;51.068;13.780;2023-08-24T12:44:29;30.90;1.00
6018;DHT22;3037;51.068;13.780;2023-08-24T12:46:55;30.70;1.00
6018;DHT22;3037;51.068;13.780;2023-08-24T12:49:20;30.60;1.00
6018;DHT22;3037;51.068;13.780;2023-08-24T12:51:46;30.30;1.00
6018;DHT22;3037;51.068;13.780;2023-08-24T12:54:12;30.10;1.00
6018;DHT22;3037;51.068;13.780;2023-08-24T12:56:39;30.30;1.00
6018;DHT22;3037;51.068;13.780;2023-08-24T12:59:06;30.10;1.00
6018;DHT22;3037;51.068;13.780;2023-08-24T13:01:31;30.20;1.00
6018;DHT22;3037;51.068;13.780;2023-08-24T13:03:57;30.40;1.00
6018;DHT22;3037;51.068;13.780;2023-08-24T13:06:23;30.80;1.00
6018;DHT22;3037;51.068;13.780;2023-08-24T13:08:48;31.50;1.00
6018;DHT22;3037;51.068;13.780;2023-08-24T13:11:14;31.80;1.00
6018;DHT22;3037;51.068;13.780;2023-08-24T13:13:39;31.80;1.00
6018;DHT22;3037;51.068;13.780;2023-08-24T13:16:06;31.80;1.00
6018;DHT22;3037;51.068;13.780;2023-08-24T13:18:31;31.60;1.00
6018;DHT22;3037;51.068;13.780;2023-08-24T13:20:57;31.50;1.00
6018;DHT22;3037;51.068;13.780;2023-08-24T13:23:22;31.00;1.00
6018;DHT22;3037;51.068;13.780;2023-08-24T13:25:48;30.70;1.00
6018;DHT22;3037;51.068;13.780;2023-08-24T13:28:13;30.80;1.00
6018;DHT22;3037;51.068;13.780;2023-08-24T13:30:39;31.20;1.00
6018;DHT22;3037;51.068;13.780;2023-08-24T13:33:05;31.00;1.00
6018;DHT22;3037;51.068;13.780;2023-08-24T13:35:32;30.60;1.00
6018;DHT22;3037;51.068;13.780;2023-08-24T13:37:57;30.60;1.00
6018;DHT22;3037;51.068;13.780;2023-08-24T13:40:23;30.40;1.00
6018;DHT22;3037;51.068;13.780;2023-08-24T13:42:49;30.60;1.00
6018;DHT22;3037;51.068;13.780;2023-08-24T13:45:14;30.50;1.00
6018;DHT22;3037;51.068;13.780;2023-08-24T13:47:41;30.90;1.00
6018;DHT22;3037;51.068;13.780;2023-08-24T13:50:06;30.90;1.00
6018;DHT22;3037;51.068;13.780;2023-08-24T13:52:32;31.00;1.00
6018;DHT22;3037;51.068;13.780;2023-08-24T13:54:57;30.80;1.00
6018;DHT22;3037;51.068;13.780;2023-08-24T13:57:24;30.60;1.00
6018;DHT22;3037;51.068;13.780;2023-08-24T13:59:50;30.70;1.00
6018;DHT22;3037;51.068;13.780;2023-08-24T14:02:15;30.70;1.00
6018;DHT22;3037;51.068;13.780;2023-08-24T14:04:41;30.80;1.00
6018;DHT22;3037;51.068;13.780;2023-08-24T14:07:06;30.80;1.00
6018;DHT22;3037;51.068;13.780;2023-08-24T14:09:32;30.90;1.00
6018;DHT22;3037;51.068;13.780;2023-08-24T14:11:58;30.70;1.00
6018;DHT22;3037;51.068;13.780;2023-08-24T14:14:23;31.20;1.00
6018;DHT22;3037;51.068;13.780;2023-08-24T14:16:54;31.20;1.00
6018;DHT22;3037;51.068;13.780;2023-08-24T14:19:20;30.40;1.00
6018;DHT22;3037;51.068;13.780;2023-08-24T14:21:45;30.50;1.00
6018;DHT22;3037;51.068;13.780;2023-08-24T14:24:11;30.70;1.00
6018;DHT22;3037;51.068;13.780;2023-08-24T14:26:37;31.00;1.00
6018;DHT22;3037;51.068;13.780;2023-08-24T14:29:04;31.00;1.00
6018;DHT22;3037;51.068;13.780;2023-08-24T14:31:30;31.10;1.00
6018;DHT22;3037;51.068;13.780;2023-08-24T14:33:57;31.30;1.00
6018;DHT22;3037;51.068;13.780;2023-08-24T14:36:23;31.10;1.00
6018;DHT22;3037;51.068;13.780;2023-08-24T14:38:50;31.20;1.00
6018;DHT22;3037;51.068;13.780;2023-08-24T14:41:17;31.20;1.00
6018;DHT22;3037;51.068;13.780;2023-08-24T14:43:42;31.20;1.00
6018;DHT22;3037;51.068;13.780;2023-08-24T14:46:08;30.80;1.00
6018;DHT22;3037;51.068;13.780;2023-08-24T14:48:34;30.80;1.00
6018;DHT22;3037;51.068;13.780;2023-08-24T14:51:00;30.80;1.00
6018;DHT22;3037;51.068;13.780;2023-08-24T14:53:27;30.30;1.00
6018;DHT22;3037;51.068;13.780;2023-08-24T14:55:53;30.40;1.00
6018;DHT22;3037;51.068;13.780;2023-08-24T14:58:21;30.50;1.00
6018;DHT22;3037;51.068;13.780;2023-08-24T15:00:47;30.40;1.00
6018;DHT22;3037;51.068;13.780;2023-08-24T15:03:13;30.30;1.00
6018;DHT22;3037;51.068;13.780;2023-08-24T15:06:01;30.20;1.00
6018;DHT22;3037;51.068;13.780;2023-08-24T15:08:29;30.30;1.00
6018;DHT22;3037;51.068;13.780;2023-08-24T15:10:56;30.30;1.00
6018;DHT22;3037;51.068;13.780;2023-08-24T15:13:22;30.40;1.00
6018;DHT22;3037;51.068;13.780;2023-08-24T15:15:48;30.30;1.00
6018;DHT22;3037;51.068;13.780;2023-08-24T15:18:14;30.30;1.00
6018;DHT22;3037;51.068;13.780;2023-08-24T15:20:39;30.00;1.00
6018;DHT22;3037;51.068;13.780;2023-08-24T15:23:05;29.90;1.00
6018;DHT22;3037;51.068;13.780;2023-08-24T15:25:32;30.10;1.00
6018;DHT22;3037;51.068;13.780;2023-08-24T15:27:58;30.20;1.00
6018;DHT22;3037;51.068;13.780;2023-08-24T15:30:24;30.30;1.00
6018;DHT22;3037;51.068;13.780;2023-08-24T15:32:49;30.20;1.00
6018;DHT22;3037;51.068;13.780;2023-08-24T15:35:15;30.20;1.00
6018;DHT22;3037;51.068;13.780;2023-08-24T15:37:41;30.10;1.00
6018;DHT22;3037;51.068;13.780;2023-08-24T15:40:07;30.00;1.00
6018;DHT22;3037;51.068;13.780;2023-08-24T15:42:33;30.00;1.00
6018;DHT22;3037;51.068;13.780;2023-08-24T15:45:00;29.80;1.00
6018;DHT22;3037;51.068;13.780;2023-08-24T15:47:25;29.80;1.00
6018;DHT22;3037;51.068;13.780;2023-08-24T15:49:51;30.00;1.00
6018;DHT22;3037;51.068;13.780;2023-08-24T15:52:16;29.80;1.00
6018;DHT22;3037;51.068;13.780;2023-08-24T15:54:42;29.80;1.00
6018;DHT22;3037;51.068;13.780;2023-08-24T15:57:08;29.70;1.00
6018;DHT22;3037;51.068;13.780;2023-08-24T15:59:35;29.60;1.00
6018;DHT22;3037;51.068;13.780;2023-08-24T16:02:00;29.40;1.00
6018;DHT22;3037;51.068;13.780;2023-08-24T16:04:26;29.30;1.00
6018;DHT22;3037;51.068;13.780;2023-08-24T16:06:51;29.20;1.00
6018;DHT22;3037;51.068;13.780;2023-08-24T16:09:17;29.20;1.00
6018;DHT22;3037;51.068;13.780;2023-08-24T16:11:43;29.40;1.00
6018;DHT22;3037;51.068;13.780;2023-08-24T16:14:08;29.40;1.00